Time;durP1;ratioP1;P1;durP2;ratioP2;P2;SDS_P1;SDS_P2;PMS_P1;PMS_P2;Temp;Humidity;BMP_temperature;BMP_pressure;BME280_temperature;BME280_humidity;BME280_pressure;Samples;Min_cycle;Max_cycle;Signal;HPM_P1;HPM_P2
2022/05/11 00:01:43;;;;;;;5.35;2.08;;;;;;;;;;5065433;28;20208;-66
2022/05/11 00:04:10;;;;;;;2.88;2.30;;;;;;;;;;5064325;28;20189;-66
2022/05/11 00:06:36;;;;;;;8.45;2.20;;;;;;;;;;5050020;28;20181;-66
2022/05/11 00:09:04;;;;;;;4.82;2.13;;;;;;;;;;5056084;28;20272;-66
2022/05/11 00:11:29;;;;;;;4.63;2.28;;;;;;;;;;5060256;28;20196;-66
2022/05/11 00:13:57;;;;;;;3.53;2.13;;;;;;;;;;5054738;28;20189;-66
2022/05/11 00:16:23;;;;;;;5.97;2.03;;;;;;;;;;5065036;28;20188;-66
2022/05/11 00:18:49;;;;;;;7.20;1.90;;;;;;;;;;5061810;28;20192;-66
2022/05/11 00:21:14;;;;;;;3.92;1.90;;;;;;;;;;5067707;28;20195;-65
2022/05/11 00:23:39;;;;;;;4.07;2.50;;;;;;;;;;5065989;28;20267;-66
2022/05/11 00:26:05;;;;;;;3.70;2.03;;;;;;;;;;5067478;28;20233;-65
2022/05/11 00:28:31;;;;;;;3.33;2.10;;;;;;;;;;5068307;28;20192;-66
2022/05/11 00:30:56;;;;;;;4.80;2.00;;;;;;;;;;5061356;28;20205;-66
2022/05/11 00:33:22;;;;;;;5.63;2.25;;;;;;;;;;5057520;28;20636;-66
2022/05/11 00:35:49;;;;;;;5.85;2.40;;;;;;;;;;5066927;28;20242;-66
2022/05/11 00:38:17;;;;;;;8.55;2.63;;;;;;;;;;5060122;28;20256;-67
2022/05/11 00:40:50;;;;;;;5.43;2.47;;;;;;;;;;5066411;28;20472;-66
2022/05/11 00:43:25;;;;;;;3.78;2.40;;;;;;;;;;5065091;28;20287;-66
2022/05/11 00:45:50;;;;;;;4.50;2.20;;;;;;;;;;5067106;28;20572;-65
2022/05/11 00:51:10;;;;;;;4.32;2.03;;;;;;;;;;5064040;28;20203;-66
2022/05/11 00:53:36;;;;;;;3.45;2.08;;;;;;;;;;5061122;28;20238;-66
2022/05/11 00:56:02;;;;;;;4.18;2.10;;;;;;;;;;5060118;28;20184;-66
2022/05/11 00:58:36;;;;;;;3.92;2.40;;;;;;;;;;5064402;28;20655;-65
2022/05/11 01:01:03;;;;;;;4.65;2.42;;;;;;;;;;5057187;28;20712;-66
2022/05/11 01:03:34;;;;;;;4.47;1.80;;;;;;;;;;5065051;28;20254;-66
2022/05/11 01:05:59;;;;;;;5.95;2.28;;;;;;;;;;5066089;28;20198;-66
2022/05/11 01:08:28;;;;;;;5.32;2.20;;;;;;;;;;5059951;28;20311;-66
2022/05/11 01:10:53;;;;;;;3.25;2.47;;;;;;;;;;5059715;28;20254;-66
2022/05/11 01:13:19;;;;;;;3.42;2.50;;;;;;;;;;5066395;28;20598;-66
2022/05/11 01:15:49;;;;;;;6.75;2.30;;;;;;;;;;5066616;28;20279;-66
2022/05/11 01:18:16;;;;;;;4.53;2.42;;;;;;;;;;5061812;28;20181;-66
2022/05/11 01:20:44;;;;;;;5.85;3.13;;;;;;;;;;5064798;28;20655;-66
2022/05/11 01:23:50;;;;;;;5.72;2.58;;;;;;;;;;5063143;28;20217;-66
2022/05/11 01:26:18;;;;;;;6.90;3.05;;;;;;;;;;5066356;28;20555;-66
2022/05/11 01:28:47;;;;;;;7.35;3.30;;;;;;;;;;5060940;28;20185;-66
2022/05/11 01:31:13;;;;;;;4.97;3.17;;;;;;;;;;5059144;28;20200;-66
2022/05/11 01:33:44;;;;;;;5.55;2.55;;;;;;;;;;5057933;28;20182;-66
2022/05/11 01:36:36;;;;;;;7.25;2.85;;;;;;;;;;5064469;28;20583;-66
2022/05/11 01:39:09;;;;;;;6.40;2.92;;;;;;;;;;5065564;28;20184;-66
2022/05/11 01:41:41;;;;;;;3.88;2.70;;;;;;;;;;5058062;28;20184;-66
2022/05/11 01:44:13;;;;;;;5.47;2.60;;;;;;;;;;5057603;28;20277;-66
2022/05/11 01:46:43;;;;;;;5.85;2.58;;;;;;;;;;5066457;28;20192;-66
2022/05/11 01:49:09;;;;;;;7.63;3.45;;;;;;;;;;5064334;28;20226;-66
2022/05/11 01:51:34;;;;;;;5.53;3.00;;;;;;;;;;5063329;28;20189;-66
2022/05/11 01:54:00;;;;;;;5.50;2.80;;;;;;;;;;5066534;28;20196;-66
2022/05/11 01:56:26;;;;;;;6.05;3.67;;;;;;;;;;5066534;28;20177;-66
2022/05/11 01:58:53;;;;;;;6.38;3.55;;;;;;;;;;5059836;28;20200;-66
2022/05/11 02:01:22;;;;;;;6.40;3.72;;;;;;;;;;5064286;28;20185;-66
2022/05/11 02:03:48;;;;;;;6.90;4.30;;;;;;;;;;5063235;28;20185;-66
2022/05/11 02:08:58;;;;;;;5.97;4.05;;;;;;;;;;5064053;28;20311;-66
2022/05/11 02:11:23;;;;;;;10.20;4.63;;;;;;;;;;5060686;28;20586;-66
2022/05/11 02:13:49;;;;;;;8.73;4.63;;;;;;;;;;5060388;28;20200;-67
2022/05/11 02:16:14;;;;;;;5.75;4.05;;;;;;;;;;5070340;28;20176;-66
2022/05/11 02:18:40;;;;;;;7.07;4.53;;;;;;;;;;5069101;28;20185;-66
2022/05/11 02:21:09;;;;;;;7.10;4.20;;;;;;;;;;5069501;28;20199;-66
2022/05/11 02:23:36;;;;;;;8.55;5.00;;;;;;;;;;5063748;28;20576;-66
2022/05/11 02:26:03;;;;;;;7.68;4.32;;;;;;;;;;5057918;28;20195;-66
2022/05/11 02:28:28;;;;;;;6.38;3.97;;;;;;;;;;5067610;28;20512;-66
2022/05/11 02:30:56;;;;;;;8.35;4.32;;;;;;;;;;5069428;28;20295;-66
2022/05/11 02:33:23;;;;;;;5.60;3.58;;;;;;;;;;5061522;28;20594;-66
2022/05/11 02:35:49;;;;;;;4.47;3.63;;;;;;;;;;5062329;28;20195;-66
2022/05/11 02:38:22;;;;;;;8.30;3.85;;;;;;;;;;5068960;28;20243;-66
2022/05/11 02:40:47;;;;;;;7.45;3.92;;;;;;;;;;5067108;28;20216;-66
2022/05/11 02:43:13;;;;;;;6.35;3.88;;;;;;;;;;5061484;28;20247;-66
2022/05/11 02:45:39;;;;;;;7.50;4.30;;;;;;;;;;5060147;28;20191;-66
2022/05/11 02:48:07;;;;;;;6.68;5.00;;;;;;;;;;5068398;28;20189;-66
2022/05/11 02:50:35;;;;;;;10.23;4.70;;;;;;;;;;5070036;28;20573;-65
2022/05/11 02:53:07;;;;;;;6.03;4.70;;;;;;;;;;5066769;28;20187;-66
2022/05/11 02:55:35;;;;;;;5.68;4.40;;;;;;;;;;5060177;28;20238;-66
2022/05/11 02:58:00;;;;;;;7.68;4.95;;;;;;;;;;5067064;28;20181;-66
2022/05/11 03:00:26;;;;;;;6.43;4.38;;;;;;;;;;5069356;28;20180;-66
2022/05/11 03:02:51;;;;;;;7.20;3.95;;;;;;;;;;5066580;28;20927;-66
2022/05/11 03:05:17;;;;;;;7.07;4.65;;;;;;;;;;5065963;28;20193;-66
2022/05/11 03:07:42;;;;;;;6.20;3.70;;;;;;;;;;5062834;28;20184;-66
2022/05/11 03:10:08;;;;;;;5.95;4.00;;;;;;;;;;5075324;28;20717;-66
2022/05/11 03:12:34;;;;;;;5.10;3.83;;;;;;;;;;5066416;28;20185;-66
2022/05/11 03:15:01;;;;;;;7.88;4.40;;;;;;;;;;5064503;28;20269;-66
2022/05/11 03:17:26;;;;;;;7.10;3.58;;;;;;;;;;5068570;28;20177;-66
2022/05/11 03:19:52;;;;;;;6.90;4.00;;;;;;;;;;5065206;28;20551;-66
2022/05/11 03:22:17;;;;;;;6.63;4.30;;;;;;;;;;5066186;28;20205;-66
2022/05/11 03:24:43;;;;;;;7.75;4.50;;;;;;;;;;5059810;28;20185;-66
2022/05/11 03:27:09;;;;;;;7.43;4.68;;;;;;;;;;5065232;28;20585;-66
2022/05/11 03:29:35;;;;;;;7.82;4.60;;;;;;;;;;5063972;28;20648;-66
2022/05/11 03:34:58;;;;;;;10.48;4.38;;;;;;;;;;5040996;28;20192;-66
2022/05/11 03:37:23;;;;;;;7.15;4.30;;;;;;;;;;5068820;28;20551;-66
2022/05/11 03:39:49;;;;;;;6.68;3.95;;;;;;;;;;5065227;28;20277;-66
2022/05/11 03:42:19;;;;;;;7.35;4.20;;;;;;;;;;5068031;28;20220;-66
2022/05/11 03:44:45;;;;;;;7.55;4.35;;;;;;;;;;5067921;28;20185;-66
2022/05/11 03:47:11;;;;;;;7.65;4.38;;;;;;;;;;5068460;28;20527;-66
2022/05/11 03:49:36;;;;;;;6.20;4.50;;;;;;;;;;5068108;28;20199;-66
2022/05/11 03:52:02;;;;;;;7.18;4.45;;;;;;;;;;5067784;28;20656;-66
2022/05/11 03:54:28;;;;;;;5.85;4.32;;;;;;;;;;5068551;28;20263;-66
2022/05/11 03:56:54;;;;;;;6.38;4.38;;;;;;;;;;5067678;28;20284;-66
2022/05/11 03:59:19;;;;;;;8.77;4.57;;;;;;;;;;5067921;28;20272;-66
2022/05/11 04:01:44;;;;;;;9.43;4.25;;;;;;;;;;5066701;28;20215;-66
2022/05/11 04:04:10;;;;;;;8.02;4.70;;;;;;;;;;5064600;28;20181;-66
2022/05/11 04:06:35;;;;;;;8.82;3.85;;;;;;;;;;5065603;28;20259;-66
2022/05/11 04:09:01;;;;;;;8.95;5.07;;;;;;;;;;5066472;28;20228;-66
2022/05/11 04:11:28;;;;;;;5.70;4.30;;;;;;;;;;5065220;28;20685;-65
2022/05/11 04:13:54;;;;;;;6.60;4.43;;;;;;;;;;5062196;28;20180;-66
2022/05/11 04:16:20;;;;;;;7.18;4.90;;;;;;;;;;5066596;28;20214;-65
2022/05/11 04:18:45;;;;;;;8.65;4.53;;;;;;;;;;5064046;28;20230;-65
2022/05/11 04:21:11;;;;;;;7.55;4.72;;;;;;;;;;5066595;28;20188;-66
2022/05/11 04:23:40;;;;;;;10.30;5.13;;;;;;;;;;5064090;28;20250;-66
2022/05/11 04:26:06;;;;;;;7.22;4.78;;;;;;;;;;5059779;28;20600;-66
2022/05/11 04:28:32;;;;;;;6.03;4.70;;;;;;;;;;5064846;28;20200;-65
2022/05/11 04:31:06;;;;;;;6.55;4.45;;;;;;;;;;5063401;28;20711;-65
2022/05/11 04:33:31;;;;;;;10.40;5.28;;;;;;;;;;5066884;28;20172;-66
2022/05/11 04:35:56;;;;;;;9.00;4.93;;;;;;;;;;5063315;28;20250;-66
2022/05/11 04:38:22;;;;;;;8.55;5.07;;;;;;;;;;5064306;28;20173;-66
2022/05/11 04:40:48;;;;;;;10.32;5.13;;;;;;;;;;5058337;28;20525;-66
2022/05/11 04:43:14;;;;;;;7.32;4.80;;;;;;;;;;5054239;28;20296;-65
2022/05/11 04:45:41;;;;;;;5.70;4.38;;;;;;;;;;5067391;28;20225;-65
2022/05/11 04:48:07;;;;;;;5.90;4.10;;;;;;;;;;5064319;28;20188;-65
2022/05/11 04:50:32;;;;;;;7.32;5.07;;;;;;;;;;5064862;28;20427;-65
2022/05/11 04:52:58;;;;;;;7.97;4.88;;;;;;;;;;5061025;28;20192;-66
2022/05/11 04:55:23;;;;;;;9.43;4.82;;;;;;;;;;5061288;28;20188;-66
2022/05/11 04:57:49;;;;;;;8.77;4.90;;;;;;;;;;5064091;28;20255;-66
2022/05/11 05:00:15;;;;;;;10.95;5.45;;;;;;;;;;5065597;28;20180;-66
2022/05/11 05:02:41;;;;;;;8.43;5.38;;;;;;;;;;5063878;28;20213;-65
2022/05/11 05:05:08;;;;;;;7.88;4.93;;;;;;;;;;5058304;28;20633;-65
2022/05/11 05:07:34;;;;;;;11.30;5.30;;;;;;;;;;5065239;28;20218;-66
2022/05/11 05:10:03;;;;;;;6.25;4.57;;;;;;;;;;5057234;28;20746;-66
2022/05/11 05:12:29;;;;;;;9.88;4.75;;;;;;;;;;5061891;28;20234;-66
2022/05/11 05:14:55;;;;;;;9.05;4.65;;;;;;;;;;5060474;28;20271;-66
2022/05/11 05:17:20;;;;;;;6.80;4.93;;;;;;;;;;5065648;28;20277;-66
2022/05/11 05:19:46;;;;;;;8.10;5.18;;;;;;;;;;5066532;28;20181;-66
2022/05/11 05:22:12;;;;;;;8.80;5.13;;;;;;;;;;5063527;28;20283;-66
2022/05/11 05:24:37;;;;;;;8.77;5.72;;;;;;;;;;5062846;28;20662;-66
2022/05/11 05:27:03;;;;;;;10.82;5.50;;;;;;;;;;5066072;28;20310;-66
2022/05/11 05:32:14;;;;;;;8.48;5.43;;;;;;;;;;5064327;28;20212;-70
2022/05/11 05:34:40;;;;;;;10.65;5.35;;;;;;;;;;5063257;28;20208;-66
2022/05/11 05:37:05;;;;;;;9.32;5.60;;;;;;;;;;5059946;28;20203;-66
2022/05/11 05:39:31;;;;;;;10.40;5.45;;;;;;;;;;5062641;28;20511;-66
2022/05/11 05:41:56;;;;;;;11.60;5.50;;;;;;;;;;5059152;28;20243;-66
2022/05/11 05:44:22;;;;;;;10.23;5.20;;;;;;;;;;5055204;28;20253;-66
2022/05/11 05:46:47;;;;;;;12.55;5.13;;;;;;;;;;5076152;28;20180;-66
2022/05/11 05:49:13;;;;;;;9.38;4.88;;;;;;;;;;5068059;28;20177;-66
2022/05/11 05:51:39;;;;;;;8.48;4.80;;;;;;;;;;5065993;28;20639;-66
2022/05/11 05:54:06;;;;;;;10.65;5.32;;;;;;;;;;5062439;28;20185;-66
2022/05/11 05:56:32;;;;;;;9.10;5.65;;;;;;;;;;5062453;28;20185;-66
2022/05/11 05:59:01;;;;;;;9.40;5.10;;;;;;;;;;5067482;28;20173;-68
2022/05/11 06:01:27;;;;;;;10.80;4.72;;;;;;;;;;5067049;28;20185;-70
2022/05/11 06:03:53;;;;;;;8.77;5.05;;;;;;;;;;5065586;28;20207;-66
2022/05/11 06:06:19;;;;;;;8.82;4.72;;;;;;;;;;5067365;28;20322;-66
2022/05/11 06:08:45;;;;;;;10.57;5.30;;;;;;;;;;5063210;28;20213;-70
2022/05/11 06:11:11;;;;;;;8.07;4.72;;;;;;;;;;5060437;28;20199;-67
2022/05/11 06:13:38;;;;;;;7.13;4.07;;;;;;;;;;5067282;28;20648;-67
2022/05/11 06:16:10;;;;;;;6.65;4.35;;;;;;;;;;5070888;28;20212;-66
2022/05/11 06:18:36;;;;;;;6.18;4.20;;;;;;;;;;5069700;28;20184;-67
2022/05/11 06:21:01;;;;;;;6.32;3.38;;;;;;;;;;5066014;28;20267;-66
2022/05/11 06:23:26;;;;;;;7.35;3.33;;;;;;;;;;5069598;28;20667;-70
2022/05/11 06:25:52;;;;;;;6.68;3.80;;;;;;;;;;5067053;28;20192;-66
2022/05/11 06:28:19;;;;;;;6.65;3.80;;;;;;;;;;5069924;28;20292;-67
2022/05/11 06:30:46;;;;;;;6.50;3.65;;;;;;;;;;5062655;28;20292;-66
2022/05/11 06:33:11;;;;;;;6.10;3.47;;;;;;;;;;5066985;28;20516;-67
2022/05/11 06:35:37;;;;;;;6.45;3.13;;;;;;;;;;5065178;28;20189;-66
2022/05/11 06:38:04;;;;;;;5.72;3.05;;;;;;;;;;5069699;28;20577;-66
2022/05/11 06:40:29;;;;;;;4.45;3.20;;;;;;;;;;5064421;28;20748;-67
2022/05/11 06:42:55;;;;;;;4.57;3.25;;;;;;;;;;5067526;28;20285;-66
2022/05/11 06:45:20;;;;;;;4.47;3.00;;;;;;;;;;5065997;28;20192;-66
2022/05/11 06:47:46;;;;;;;5.88;3.30;;;;;;;;;;5053024;28;20178;-69
2022/05/11 06:50:12;;;;;;;11.13;3.42;;;;;;;;;;5064745;28;20191;-71
2022/05/11 06:52:38;;;;;;;4.20;2.58;;;;;;;;;;5069009;28;20177;-69
2022/05/11 07:00:33;;;;;;;6.28;2.67;;;;;;;;;;5066879;28;20790;-68
2022/05/11 07:02:59;;;;;;;6.35;2.22;;;;;;;;;;5068399;28;20266;-66
2022/05/11 07:05:25;;;;;;;3.95;2.25;;;;;;;;;;5066619;28;20600;-66
2022/05/11 07:07:51;;;;;;;6.60;2.42;;;;;;;;;;5063783;28;20195;-66
2022/05/11 07:10:17;;;;;;;5.13;1.77;;;;;;;;;;5064607;28;20239;-66
2022/05/11 07:12:48;;;;;;;5.63;2.30;;;;;;;;;;5058209;28;20196;-66
2022/05/11 07:15:16;;;;;;;4.65;2.17;;;;;;;;;;5066634;28;20229;-68
2022/05/11 07:17:47;;;;;;;5.10;1.90;;;;;;;;;;5066008;28;20185;-66
2022/05/11 07:20:26;;;;;;;7.68;2.28;;;;;;;;;;5066643;28;20185;-66
2022/05/11 07:22:52;;;;;;;5.25;1.83;;;;;;;;;;5068994;28;20216;-67
2022/05/11 07:25:21;;;;;;;4.20;1.48;;;;;;;;;;5066659;28;20269;-67
2022/05/11 07:27:47;;;;;;;5.88;1.65;;;;;;;;;;5066861;28;20276;-67
2022/05/11 07:30:16;;;;;;;4.43;2.13;;;;;;;;;;5068793;28;20600;-68
2022/05/11 07:32:42;;;;;;;4.57;1.67;;;;;;;;;;5067296;28;20275;-66
2022/05/11 07:35:07;;;;;;;6.90;1.85;;;;;;;;;;5068443;28;20264;-67
2022/05/11 07:37:33;;;;;;;5.15;2.20;;;;;;;;;;5068603;28;20231;-67
2022/05/11 07:39:59;;;;;;;6.07;1.40;;;;;;;;;;5066380;28;20234;-67
2022/05/11 07:42:26;;;;;;;4.90;1.60;;;;;;;;;;5082581;28;20248;-67
2022/05/11 07:44:51;;;;;;;4.75;1.50;;;;;;;;;;5067467;28;20188;-68
2022/05/11 07:47:17;;;;;;;4.57;1.58;;;;;;;;;;5068022;28;20188;-67
2022/05/11 07:49:42;;;;;;;3.88;1.88;;;;;;;;;;5067281;28;20290;-67
2022/05/11 07:52:08;;;;;;;5.97;1.80;;;;;;;;;;5067575;28;20535;-67
2022/05/11 07:54:34;;;;;;;4.22;1.45;;;;;;;;;;5066933;28;20176;-67
2022/05/11 07:59:57;;;;;;;5.05;2.10;;;;;;;;;;5067008;28;20195;-70
2022/05/11 08:02:31;;;;;;;4.75;1.80;;;;;;;;;;5068285;28;20320;-69
2022/05/11 08:05:00;;;;;;;4.50;1.60;;;;;;;;;;5066779;28;20188;-67
2022/05/11 08:07:29;;;;;;;6.35;1.38;;;;;;;;;;5065346;28;20181;-67
2022/05/11 08:09:59;;;;;;;3.90;1.20;;;;;;;;;;5063771;28;20711;-67
2022/05/11 08:12:25;;;;;;;2.28;1.27;;;;;;;;;;5066883;28;20204;-70
2022/05/11 08:14:50;;;;;;;5.05;1.10;;;;;;;;;;5065307;28;20232;-70
2022/05/11 08:17:23;;;;;;;4.45;1.10;;;;;;;;;;5064462;28;20193;-70
2022/05/11 08:19:48;;;;;;;4.57;1.00;;;;;;;;;;5065579;28;20588;-69
2022/05/11 08:22:14;;;;;;;5.50;1.23;;;;;;;;;;5065289;28;20193;-67
2022/05/11 08:24:40;;;;;;;5.95;1.10;;;;;;;;;;5066487;28;20246;-66
2022/05/11 08:27:09;;;;;;;4.70;1.05;;;;;;;;;;5058257;28;20503;-67
2022/05/11 08:35:03;;;;;;;1.98;1.10;;;;;;;;;;5067488;28;20180;-68
2022/05/11 08:37:29;;;;;;;7.85;1.00;;;;;;;;;;5062869;28;20180;-68
2022/05/11 08:39:54;;;;;;;8.38;1.20;;;;;;;;;;5068263;28;20204;-68
2022/05/11 08:42:20;;;;;;;5.78;1.23;;;;;;;;;;5067635;28;20285;-69
2022/05/11 08:44:49;;;;;;;10.10;1.30;;;;;;;;;;5063182;28;20192;-68
2022/05/11 08:47:45;;;;;;;3.70;0.95;;;;;;;;;;5066321;28;20180;-66
2022/05/11 08:50:27;;;;;;;3.38;1.00;;;;;;;;;;5066612;28;20205;-68
2022/05/11 08:53:00;;;;;;;5.70;1.85;;;;;;;;;;5065505;28;20172;-70
2022/05/11 08:55:47;;;;;;;4.95;1.00;;;;;;;;;;5068299;28;20187;-71
2022/05/11 08:58:22;;;;;;;4.68;1.10;;;;;;;;;;5067272;28;20263;-67
2022/05/11 09:00:49;;;;;;;3.00;1.08;;;;;;;;;;5066648;28;20192;-70
2022/05/11 09:03:31;;;;;;;2.00;1.15;;;;;;;;;;5065479;28;20224;-69
2022/05/11 09:06:07;;;;;;;6.25;1.20;;;;;;;;;;5065395;28;20345;-69
2022/05/11 09:08:35;;;;;;;5.63;1.02;;;;;;;;;;5066797;28;20216;-68
2022/05/11 09:11:00;;;;;;;4.82;1.38;;;;;;;;;;5065270;28;20195;-71
2022/05/11 09:13:27;;;;;;;5.25;1.90;;;;;;;;;;5064665;28;20852;-70
2022/05/11 09:15:55;;;;;;;7.22;1.98;;;;;;;;;;5065935;28;20268;-66
2022/05/11 09:18:32;;;;;;;3.10;1.08;;;;;;;;;;5065164;28;20214;-69
2022/05/11 09:21:00;;;;;;;4.10;1.50;;;;;;;;;;5065824;28;20255;-70
2022/05/11 09:24:13;;;;;;;4.43;1.00;;;;;;;;;;5070020;28;20204;-67
2022/05/11 09:26:44;;;;;;;5.93;1.30;;;;;;;;;;5064414;28;20192;-68
2022/05/11 09:29:23;;;;;;;2.65;1.27;;;;;;;;;;5067997;28;20172;-68
2022/05/11 09:31:51;;;;;;;4.75;1.10;;;;;;;;;;5069925;28;20269;-69
2022/05/11 09:34:36;;;;;;;4.50;1.30;;;;;;;;;;5069224;28;20199;-67
2022/05/11 09:37:14;;;;;;;5.38;1.48;;;;;;;;;;5070113;28;20181;-71
2022/05/11 09:39:52;;;;;;;12.32;2.15;;;;;;;;;;5067676;28;20253;-69
2022/05/11 09:42:24;;;;;;;8.27;1.65;;;;;;;;;;5066176;28;20197;-69
2022/05/11 09:44:52;;;;;;;4.05;1.27;;;;;;;;;;5066761;28;20599;-67
2022/05/11 09:47:33;;;;;;;3.30;1.25;;;;;;;;;;5070133;28;20182;-68
2022/05/11 09:50:17;;;;;;;2.60;1.30;;;;;;;;;;5070743;28;20199;-68
2022/05/11 09:52:44;;;;;;;4.63;1.23;;;;;;;;;;5069071;28;20264;-71
2022/05/11 09:55:19;;;;;;;6.15;1.10;;;;;;;;;;5067620;28;20270;-68
2022/05/11 09:57:58;;;;;;;1.95;1.30;;;;;;;;;;5068534;28;20180;-69
2022/05/11 10:00:26;;;;;;;5.70;1.50;;;;;;;;;;5071502;28;20184;-71
2022/05/11 10:02:56;;;;;;;4.18;1.35;;;;;;;;;;5070420;28;20212;-68
2022/05/11 10:05:27;;;;;;;3.60;1.30;;;;;;;;;;5070483;28;20191;-68
2022/05/11 10:08:01;;;;;;;3.65;1.50;;;;;;;;;;5069809;28;20208;-70
2022/05/11 10:10:36;;;;;;;4.45;1.50;;;;;;;;;;5070817;28;20655;-70
2022/05/11 10:13:23;;;;;;;7.60;1.73;;;;;;;;;;5068059;28;20164;-71
2022/05/11 10:21:54;;;;;;;7.43;1.75;;;;;;;;;;5068464;28;20239;-68
2022/05/11 10:24:37;;;;;;;5.57;1.83;;;;;;;;;;5066815;28;20561;-70
2022/05/11 10:27:27;;;;;;;6.97;1.75;;;;;;;;;;5067867;28;20287;-71
2022/05/11 10:30:10;;;;;;;5.35;1.67;;;;;;;;;;5066779;28;20195;-70
2022/05/11 10:32:48;;;;;;;5.70;1.70;;;;;;;;;;5068747;28;20572;-70
2022/05/11 10:35:22;;;;;;;4.60;2.17;;;;;;;;;;5069953;28;20238;-70
2022/05/11 10:37:59;;;;;;;6.72;1.60;;;;;;;;;;5068470;28;20192;-70
2022/05/11 10:40:52;;;;;;;7.38;1.83;;;;;;;;;;5069709;28;20305;-72
2022/05/11 10:43:45;;;;;;;7.80;1.50;;;;;;;;;;5056572;28;20728;-68
2022/05/11 10:46:25;;;;;;;6.63;1.60;;;;;;;;;;5060588;28;20181;-68
2022/05/11 10:49:11;;;;;;;4.60;1.58;;;;;;;;;;5068348;28;20236;-68
2022/05/11 10:52:05;;;;;;;4.97;1.90;;;;;;;;;;5056434;28;20221;-70
2022/05/11 10:54:43;;;;;;;3.90;1.77;;;;;;;;;;5066221;28;20193;-75
2022/05/11 10:58:05;;;;;;;6.15;1.77;;;;;;;;;;5067253;28;20664;-68
2022/05/11 11:00:41;;;;;;;7.38;1.75;;;;;;;;;;5007898;28;20285;-70
2022/05/11 11:03:41;;;;;;;6.63;2.20;;;;;;;;;;4996051;28;20218;-70
2022/05/11 11:09:03;;;;;;;3.25;1.40;;;;;;;;;;5057491;28;20473;-67
2022/05/11 11:11:54;;;;;;;7.03;1.70;;;;;;;;;;5069165;28;20218;-69
2022/05/11 11:14:32;;;;;;;7.68;1.45;;;;;;;;;;5067604;28;20608;-69
2022/05/11 11:16:58;;;;;;;5.72;2.30;;;;;;;;;;5068645;28;20184;-70
2022/05/11 11:19:24;;;;;;;5.18;1.40;;;;;;;;;;5067585;28;20184;-70
2022/05/11 11:21:50;;;;;;;5.03;1.55;;;;;;;;;;5066960;28;20675;-69
2022/05/11 11:24:27;;;;;;;2.08;1.42;;;;;;;;;;5067477;28;20177;-71
2022/05/11 11:27:05;;;;;;;5.68;1.50;;;;;;;;;;5067212;28;20486;-70
2022/05/11 11:29:56;;;;;;;5.88;1.45;;;;;;;;;;5056336;28;20169;-71
2022/05/11 11:32:21;;;;;;;4.60;1.45;;;;;;;;;;5079543;28;20202;-71
2022/05/11 11:35:11;;;;;;;7.53;1.65;;;;;;;;;;5076689;28;20185;-71
2022/05/11 11:37:43;;;;;;;4.63;1.63;;;;;;;;;;5067825;28;20193;-70
2022/05/11 11:40:14;;;;;;;6.13;1.55;;;;;;;;;;5068852;28;20635;-68
2022/05/11 11:42:40;;;;;;;5.90;1.73;;;;;;;;;;5081017;28;20212;-68
2022/05/11 11:45:11;;;;;;;4.70;1.27;;;;;;;;;;5067124;28;20177;-68
2022/05/11 11:47:40;;;;;;;2.75;1.40;;;;;;;;;;5068467;28;20519;-69
2022/05/11 11:50:11;;;;;;;6.53;1.52;;;;;;;;;;5068932;28;20177;-71
2022/05/11 11:52:40;;;;;;;2.28;1.20;;;;;;;;;;5064137;28;20216;-71
2022/05/11 11:55:23;;;;;;;11.52;1.38;;;;;;;;;;5069065;28;20318;-71
2022/05/11 11:57:55;;;;;;;7.53;1.30;;;;;;;;;;5080931;28;20266;-72
2022/05/11 12:00:20;;;;;;;7.30;1.20;;;;;;;;;;5065458;28;20208;-71
2022/05/11 12:02:46;;;;;;;3.80;1.40;;;;;;;;;;5057489;28;20701;-68
2022/05/11 12:05:29;;;;;;;2.90;1.08;;;;;;;;;;5067742;28;20294;-70
2022/05/11 12:17:01;;;;;;;3.63;1.00;;;;;;;;;;5067873;28;20249;-69
2022/05/11 12:19:32;;;;;;;5.03;1.23;;;;;;;;;;5067798;28;20581;-72
2022/05/11 12:22:02;;;;;;;3.17;0.93;;;;;;;;;;5066553;28;20661;-71
2022/05/11 12:24:40;;;;;;;3.47;0.82;;;;;;;;;;5066599;28;20249;-70
2022/05/11 12:27:12;;;;;;;3.83;0.93;;;;;;;;;;5066946;28;20181;-65
2022/05/11 12:29:58;;;;;;;5.70;1.02;;;;;;;;;;5065186;28;20181;-66
2022/05/11 12:32:33;;;;;;;5.50;0.90;;;;;;;;;;5064781;28;20488;-69
2022/05/11 12:35:18;;;;;;;3.20;1.10;;;;;;;;;;5065068;28;20180;-70
2022/05/11 12:37:43;;;;;;;6.78;0.90;;;;;;;;;;5063951;28;20594;-70
2022/05/11 12:40:09;;;;;;;5.35;1.20;;;;;;;;;;5062637;28;20192;-70
2022/05/11 12:42:46;;;;;;;6.95;1.10;;;;;;;;;;5064255;28;20212;-66
2022/05/11 12:45:15;;;;;;;4.60;1.10;;;;;;;;;;5060196;28;20288;-67
2022/05/11 12:47:51;;;;;;;3.40;1.00;;;;;;;;;;5064743;28;20560;-69
2022/05/11 12:50:21;;;;;;;3.50;0.90;;;;;;;;;;5066946;28;20249;-71
2022/05/11 12:53:04;;;;;;;4.32;1.15;;;;;;;;;;5062504;28;20572;-67
2022/05/11 12:55:34;;;;;;;5.40;1.20;;;;;;;;;;5065354;28;20173;-69
2022/05/11 12:58:00;;;;;;;2.13;1.10;;;;;;;;;;5060136;28;20641;-66
2022/05/11 13:00:29;;;;;;;8.18;1.25;;;;;;;;;;5066687;28;20177;-69
2022/05/11 13:02:56;;;;;;;5.10;1.10;;;;;;;;;;5061940;28;20216;-70
2022/05/11 13:05:23;;;;;;;4.97;1.20;;;;;;;;;;5059955;28;20299;-69
2022/05/11 13:07:57;;;;;;;2.92;0.90;;;;;;;;;;5066508;28;20182;-68
2022/05/11 13:10:33;;;;;;;5.00;1.20;;;;;;;;;;5066529;28;20228;-69
2022/05/11 13:13:00;;;;;;;4.28;1.00;;;;;;;;;;5066890;28;20515;-68
2022/05/11 13:15:41;;;;;;;5.85;1.40;;;;;;;;;;5067103;28;20172;-70
2022/05/11 13:18:11;;;;;;;2.40;1.00;;;;;;;;;;5065313;28;20260;-70
2022/05/11 13:20:42;;;;;;;2.92;1.15;;;;;;;;;;5067568;28;20192;-68
2022/05/11 13:23:24;;;;;;;2.35;1.10;;;;;;;;;;5062188;28;20695;-69
2022/05/11 13:25:52;;;;;;;4.15;1.30;;;;;;;;;;5062381;28;20767;-68
2022/05/11 13:28:24;;;;;;;5.78;1.63;;;;;;;;;;5065425;28;20524;-70
2022/05/11 13:31:01;;;;;;;6.53;1.90;;;;;;;;;;5066020;28;20214;-70
2022/05/11 13:33:35;;;;;;;7.82;1.58;;;;;;;;;;5064918;28;20180;-69
2022/05/11 13:36:14;;;;;;;5.22;1.77;;;;;;;;;;5066786;28;20535;-71
2022/05/11 13:39:17;;;;;;;4.95;1.40;;;;;;;;;;5063364;28;20180;-67
2022/05/11 13:41:45;;;;;;;6.63;2.10;;;;;;;;;;5064606;28;20199;-67
2022/05/11 13:44:13;;;;;;;6.50;1.80;;;;;;;;;;5064284;28;20192;-70
2022/05/11 13:49:33;;;;;;;5.65;2.05;;;;;;;;;;5061275;28;20250;-68
2022/05/11 13:52:02;;;;;;;5.40;1.75;;;;;;;;;;5067232;28;20594;-67
2022/05/11 13:54:36;;;;;;;3.92;1.67;;;;;;;;;;5066340;28;20196;-67
2022/05/11 13:57:03;;;;;;;8.77;2.10;;;;;;;;;;5065161;28;20195;-69
2022/05/11 13:59:30;;;;;;;3.70;2.00;;;;;;;;;;5066586;28;20234;-70
2022/05/11 14:01:56;;;;;;;6.05;1.65;;;;;;;;;;5062238;28;20200;-68
2022/05/11 14:04:31;;;;;;;6.72;2.00;;;;;;;;;;5066524;28;20191;-68
2022/05/11 14:07:05;;;;;;;6.28;1.90;;;;;;;;;;5066344;28;20184;-68
2022/05/11 14:09:33;;;;;;;5.18;1.83;;;;;;;;;;5068468;28;20302;-67
2022/05/11 14:11:58;;;;;;;8.30;1.75;;;;;;;;;;5070009;28;20173;-68
2022/05/11 14:14:24;;;;;;;3.53;1.67;;;;;;;;;;5069820;28;20188;-69
2022/05/11 14:16:51;;;;;;;4.43;1.67;;;;;;;;;;5085210;28;20184;-67
2022/05/11 14:19:18;;;;;;;4.25;1.80;;;;;;;;;;5064157;28;20204;-68
2022/05/11 14:21:45;;;;;;;6.70;1.90;;;;;;;;;;5059443;28;20187;-71
2022/05/11 14:24:11;;;;;;;5.97;2.03;;;;;;;;;;5069628;28;20209;-71
2022/05/11 14:26:37;;;;;;;5.53;1.88;;;;;;;;;;5070040;28;20727;-67
2022/05/11 14:29:03;;;;;;;7.28;2.03;;;;;;;;;;5068235;28;20187;-72
2022/05/11 14:31:28;;;;;;;5.57;2.17;;;;;;;;;;5070134;28;20265;-70
2022/05/11 14:33:54;;;;;;;10.98;2.83;;;;;;;;;;5061939;28;20184;-69
2022/05/11 14:36:20;;;;;;;7.03;2.92;;;;;;;;;;5080955;28;20627;-66
2022/05/11 14:38:46;;;;;;;9.05;2.35;;;;;;;;;;5067124;28;20192;-65
2022/05/11 14:41:11;;;;;;;7.25;1.92;;;;;;;;;;5067865;28;20659;-66
2022/05/11 14:43:37;;;;;;;4.65;1.85;;;;;;;;;;5066756;28;20208;-69
2022/05/11 14:46:05;;;;;;;5.97;2.10;;;;;;;;;;5068569;28;20192;-69
2022/05/11 14:48:35;;;;;;;5.43;1.90;;;;;;;;;;5068662;28;20268;-66
2022/05/11 14:51:06;;;;;;;4.90;1.90;;;;;;;;;;5068716;28;20183;-68
2022/05/11 14:53:32;;;;;;;7.06;2.10;;;;;;;;;;4714849;28;10000935;-66
2022/05/11 14:55:57;;;;;;;6.10;2.30;;;;;;;;;;5064965;28;20247;-68
2022/05/11 15:03:58;;;;;;;8.27;2.00;;;;;;;;;;5062022;28;20662;-65
2022/05/11 15:06:24;;;;;;;4.55;1.77;;;;;;;;;;5062410;28;20245;-65
2022/05/11 15:08:51;;;;;;;5.05;1.92;;;;;;;;;;5061461;28;20225;-67
2022/05/11 15:14:02;;;;;;;7.60;1.92;;;;;;;;;;5060305;28;20231;-66
2022/05/11 15:16:30;;;;;;;4.32;2.28;;;;;;;;;;5065772;28;20181;-66
2022/05/11 15:18:56;;;;;;;5.97;1.90;;;;;;;;;;5062656;28;20895;-65
2022/05/11 15:21:21;;;;;;;9.13;2.20;;;;;;;;;;5063032;28;20272;-66
2022/05/11 15:23:47;;;;;;;9.55;2.00;;;;;;;;;;5062973;28;20328;-65
2022/05/11 15:26:12;;;;;;;2.95;1.90;;;;;;;;;;5080338;28;20176;-69
2022/05/11 15:28:37;;;;;;;7.90;2.42;;;;;;;;;;5064531;28;20185;-66
2022/05/11 15:31:03;;;;;;;4.50;2.50;;;;;;;;;;5063383;28;20208;-66
2022/05/11 15:33:30;;;;;;;6.05;1.85;;;;;;;;;;5063079;28;20189;-66
2022/05/11 15:35:57;;;;;;;6.10;2.00;;;;;;;;;;5065137;28;20192;-68
2022/05/11 15:38:23;;;;;;;6.00;2.13;;;;;;;;;;5065460;28;20204;-70
2022/05/11 15:40:48;;;;;;;6.40;1.80;;;;;;;;;;5060011;28;20222;-68
2022/05/11 15:43:15;;;;;;;9.52;2.83;;;;;;;;;;5063498;28;20295;-68
2022/05/11 15:45:41;;;;;;;4.78;2.05;;;;;;;;;;5056811;28;20553;-68
2022/05/11 15:48:07;;;;;;;6.70;2.25;;;;;;;;;;5063718;28;20188;-69
2022/05/11 15:50:33;;;;;;;7.72;2.25;;;;;;;;;;5054260;28;20186;-67
2022/05/11 15:52:59;;;;;;;7.95;2.15;;;;;;;;;;5052627;28;20216;-67